createdAt,value
2019-02-17T00:00:54.643Z,12.20
2019-02-17T00:03:35.579Z,12.30
2019-02-17T00:06:16.392Z,12.20
2019-02-17T00:08:57.307Z,12.20
2019-02-17T00:11:38.184Z,12.30
2019-02-17T00:14:19.132Z,12.20
2019-02-17T00:16:59.554Z,12.30
2019-02-17T00:19:40.800Z,12.40
2019-02-17T00:22:21.243Z,12.20
2019-02-17T00:25:02.221Z,12.40
2019-02-17T00:27:43.249Z,12.40
2019-02-17T00:30:24.211Z,12.30
2019-02-17T00:33:04.941Z,12.40
2019-02-17T00:35:45.833Z,12.40
2019-02-17T00:38:26.673Z,12.50
2019-02-17T00:41:07.512Z,12.40
2019-02-17T00:43:48.173Z,12.40
2019-02-17T00:46:28.785Z,12.30
2019-02-17T00:49:10.200Z,12.30
2019-02-17T00:51:50.712Z,12.40
2019-02-17T00:54:31.948Z,12.40
2019-02-17T00:57:00.647Z,12.40
2019-02-17T00:59:48.701Z,12.50
2019-02-17T01:02:36.460Z,12.50
2019-02-17T01:05:24.204Z,12.40
2019-02-17T01:08:12.229Z,12.40
2019-02-17T01:11:00.009Z,12.30
2019-02-17T01:13:47.761Z,12.30
2019-02-17T01:16:35.525Z,12.30
2019-02-17T01:19:23.299Z,12.30
2019-02-17T01:22:11.052Z,12.40
2019-02-17T01:24:59.120Z,12.40
2019-02-17T01:27:46.856Z,12.40
2019-02-17T01:30:34.636Z,12.40
2019-02-17T01:33:22.405Z,12.40
2019-02-17T01:36:10.172Z,12.30
2019-02-17T01:38:57.941Z,12.30
2019-02-17T01:41:45.703Z,12.30
2019-02-17T01:44:33.480Z,12.40
2019-02-17T01:47:21.253Z,12.40
2019-02-17T01:50:09.179Z,12.40
2019-02-17T01:52:49.379Z,12.30
2019-02-17T01:55:30.560Z,12.30
2019-02-17T01:58:11.387Z,12.30
2019-02-17T02:00:39.961Z,12.40
2019-02-17T02:03:27.729Z,12.30
2019-02-17T02:06:15.472Z,12.30
2019-02-17T02:09:14.587Z,12.40
2019-02-17T02:12:02.606Z,12.30
2019-02-17T02:14:50.368Z,12.30
2019-02-17T02:17:38.476Z,12.30
2019-02-17T02:20:26.225Z,12.20
2019-02-17T02:23:13.996Z,12.10
2019-02-17T02:26:01.766Z,12.00
2019-02-17T02:28:49.528Z,12.00
2019-02-17T02:31:37.278Z,12.00
2019-02-17T02:34:25.036Z,12.00
2019-02-17T02:37:12.810Z,11.90
2019-02-17T02:40:00.595Z,11.90
2019-02-17T02:42:48.350Z,11.80
2019-02-17T02:45:36.426Z,11.80
2019-02-17T02:48:24.172Z,11.70
2019-02-17T02:51:04.825Z,11.60
2019-02-17T02:53:46.032Z,11.50
2019-02-17T02:56:27.060Z,11.30
2019-02-17T02:59:08.304Z,11.20
2019-02-17T03:01:49.039Z,11.20
2019-02-17T03:04:29.999Z,11.10
2019-02-17T03:07:10.670Z,11.00
2019-02-17T03:09:51.313Z,11.00
2019-02-17T03:12:32.201Z,10.90
2019-02-17T03:15:13.012Z,10.90
2019-02-17T03:17:53.917Z,10.90
2019-02-17T03:20:34.703Z,10.80
2019-02-17T03:23:15.726Z,10.70
2019-02-17T03:25:56.479Z,10.80
2019-02-17T03:28:37.428Z,10.70
2019-02-17T03:31:18.306Z,10.70
2019-02-17T03:33:58.760Z,10.60
2019-02-17T03:36:39.470Z,10.70
2019-02-17T03:39:21.674Z,10.70
2019-02-17T03:42:02.366Z,10.80
2019-02-17T03:44:43.598Z,10.80
2019-02-17T03:47:24.188Z,10.70
2019-02-17T03:50:05.024Z,10.70
2019-02-17T03:52:45.816Z,10.70
2019-02-17T03:55:26.893Z,10.60
2019-02-17T03:58:07.776Z,10.60
2019-02-17T04:00:48.233Z,10.80
2019-02-17T04:03:29.345Z,10.70
2019-02-17T04:06:10.062Z,10.70
2019-02-17T04:08:50.786Z,10.80
2019-02-17T04:11:31.537Z,10.70
2019-02-17T04:14:12.683Z,10.60
2019-02-17T04:16:53.380Z,10.60
2019-02-17T04:19:34.011Z,10.60
2019-02-17T04:22:14.644Z,10.50
2019-02-17T04:24:55.498Z,10.60
2019-02-17T04:27:36.015Z,10.60
2019-02-17T04:30:28.135Z,10.60
2019-02-17T04:32:58.630Z,10.60
2019-02-17T04:35:39.464Z,10.50
2019-02-17T04:38:20.161Z,10.60
2019-02-17T04:41:01.037Z,10.50
2019-02-17T04:43:41.854Z,10.50
2019-02-17T04:46:22.742Z,10.50
2019-02-17T04:49:03.374Z,10.50
2019-02-17T04:51:44.204Z,10.50
2019-02-17T04:54:25.133Z,10.50
2019-02-17T04:57:05.854Z,10.40
2019-02-17T04:59:46.709Z,10.40
2019-02-17T05:02:27.458Z,10.30
2019-02-17T05:05:08.361Z,10.40
2019-02-17T05:07:49.206Z,10.40
2019-02-17T05:10:30.151Z,10.30
2019-02-17T05:13:11.037Z,10.40
2019-02-17T05:15:51.651Z,10.40
2019-02-17T05:18:20.060Z,10.40
2019-02-17T05:21:07.824Z,10.40
2019-02-17T05:23:55.568Z,10.30
2019-02-17T05:26:43.325Z,10.30
2019-02-17T05:29:31.093Z,10.40
2019-02-17T05:32:18.861Z,10.30
2019-02-17T05:35:06.677Z,10.20
2019-02-17T05:37:54.448Z,10.30
2019-02-17T05:40:42.561Z,10.30
2019-02-17T05:43:30.324Z,10.20
2019-02-17T05:46:18.068Z,10.20
2019-02-17T05:49:05.833Z,10.20
2019-02-17T05:51:46.469Z,10.10
2019-02-17T05:54:27.116Z,10.00
2019-02-17T05:57:07.958Z,10.00
2019-02-17T05:59:48.132Z,10.00
2019-02-17T06:02:29.100Z,10.00
2019-02-17T06:05:10.057Z,10.00
2019-02-17T06:07:51.065Z,9.90
2019-02-17T06:10:31.637Z,9.80
2019-02-17T06:13:12.257Z,9.80
2019-02-17T06:15:52.637Z,9.80
2019-02-17T06:18:33.684Z,9.80
2019-02-17T06:21:14.438Z,9.70
2019-02-17T06:23:55.156Z,9.70
2019-02-17T06:26:35.831Z,9.70
2019-02-17T06:29:16.838Z,9.70
2019-02-17T06:31:57.937Z,9.60
2019-02-17T06:34:38.600Z,9.60
2019-02-17T06:37:19.126Z,9.60
2019-02-17T06:40:00.499Z,9.50
2019-02-17T06:42:41.521Z,9.60
2019-02-17T06:45:22.613Z,9.60
2019-02-17T06:48:03.555Z,9.60
2019-02-17T06:50:43.852Z,9.60
2019-02-17T06:53:24.872Z,9.60
2019-02-17T06:56:10.327Z,9.50
2019-02-17T06:58:51.526Z,9.50
2019-02-17T07:01:32.197Z,9.40
2019-02-17T07:04:12.695Z,9.40
2019-02-17T07:06:55.162Z,9.50
2019-02-17T07:09:36.160Z,9.50
2019-02-17T07:12:16.650Z,9.60
2019-02-17T07:14:57.388Z,9.60
2019-02-17T07:17:38.389Z,9.60
2019-02-17T07:20:18.965Z,9.60
2019-02-17T07:22:59.360Z,9.60
2019-02-17T07:25:40.014Z,9.60
2019-02-17T07:28:20.467Z,9.70
2019-02-17T07:31:00.825Z,9.70
2019-02-17T07:33:41.813Z,9.60
2019-02-17T07:36:23.082Z,9.60
2019-02-17T07:39:05.028Z,9.60
2019-02-17T07:41:45.889Z,9.60
2019-02-17T07:44:26.457Z,9.60
2019-02-17T07:47:07.144Z,9.70
2019-02-17T07:49:47.827Z,9.70
2019-02-17T07:52:28.603Z,9.60
2019-02-17T07:55:09.523Z,9.70
2019-02-17T07:57:50.462Z,9.60
2019-02-17T08:00:31.559Z,9.70
2019-02-17T08:03:12.332Z,9.70
2019-02-17T08:05:52.865Z,9.60
2019-02-17T08:08:33.759Z,9.60
2019-02-17T08:11:14.820Z,9.70
2019-02-17T08:13:55.541Z,9.60
2019-02-17T08:16:36.344Z,9.70
2019-02-17T08:19:16.672Z,9.60
2019-02-17T08:21:57.622Z,9.70
2019-02-17T08:24:38.162Z,9.70
2019-02-17T08:27:18.981Z,9.70
2019-02-17T08:29:59.780Z,9.60
2019-02-17T08:32:40.431Z,9.70
2019-02-17T08:35:21.193Z,9.80
2019-02-17T08:38:03.547Z,9.80
2019-02-17T08:40:43.952Z,9.80
2019-02-17T08:43:24.858Z,9.80
2019-02-17T08:46:05.639Z,9.80
2019-02-17T08:48:46.171Z,9.80
2019-02-17T08:51:26.623Z,10.00
2019-02-17T08:54:07.373Z,10.10
2019-02-17T08:56:47.844Z,10.20
2019-02-17T08:59:28.861Z,10.20
2019-02-17T09:02:09.292Z,10.30
2019-02-17T09:04:49.558Z,10.40
2019-02-17T09:07:30.498Z,10.40
2019-02-17T09:10:11.282Z,10.50
2019-02-17T09:12:52.389Z,10.50
2019-02-17T09:15:32.944Z,10.50
2019-02-17T09:18:13.505Z,10.70
2019-02-17T09:20:54.206Z,10.70
2019-02-17T09:23:34.675Z,10.80
2019-02-17T09:26:15.289Z,10.70
2019-02-17T09:28:55.749Z,10.90
2019-02-17T09:31:36.431Z,10.80
2019-02-17T09:34:17.163Z,10.90
2019-02-17T09:36:57.895Z,10.90
2019-02-17T09:39:38.465Z,11.00
2019-02-17T09:42:19.442Z,11.20
2019-02-17T09:45:00.214Z,11.30
2019-02-17T09:47:40.745Z,11.40
2019-02-17T09:50:21.347Z,11.50
2019-02-17T09:53:02.225Z,11.50
2019-02-17T09:55:42.701Z,11.70
2019-02-17T09:58:23.606Z,11.80
2019-02-17T10:01:04.651Z,11.80
2019-02-17T10:03:45.135Z,11.90
2019-02-17T10:06:26.228Z,11.90
2019-02-17T10:09:07.889Z,12.10
2019-02-17T10:11:48.665Z,12.10
2019-02-17T10:14:29.489Z,12.10
2019-02-17T10:17:10.160Z,12.20
2019-02-17T10:19:50.873Z,12.40
2019-02-17T10:22:31.532Z,12.40
2019-02-17T10:24:59.967Z,12.40
2019-02-17T10:27:48.028Z,12.30
2019-02-17T10:30:37.450Z,12.50
2019-02-17T10:33:25.196Z,12.60
2019-02-17T10:36:12.956Z,12.40
2019-02-17T10:39:00.720Z,12.60
2019-02-17T10:41:48.484Z,12.60
2019-02-17T10:44:36.252Z,12.90
2019-02-17T10:47:24.000Z,13.10
2019-02-17T10:50:12.324Z,13.10
2019-02-17T10:53:00.095Z,13.10
2019-02-17T10:55:40.661Z,13.30
2019-02-17T10:58:21.368Z,13.20
2019-02-17T11:01:02.554Z,13.30
2019-02-17T11:03:42.945Z,13.30
2019-02-17T11:06:23.726Z,13.60
2019-02-17T11:09:06.209Z,13.70
2019-02-17T11:11:46.433Z,13.70
2019-02-17T11:14:27.192Z,13.50
2019-02-17T11:17:07.837Z,13.70
2019-02-17T11:19:48.824Z,14.10
2019-02-17T11:22:30.081Z,14.10
2019-02-17T11:25:10.874Z,14.00
2019-02-17T11:27:51.988Z,14.20
2019-02-17T11:30:32.765Z,14.20
2019-02-17T11:33:13.606Z,14.50
2019-02-17T11:35:54.561Z,14.80
2019-02-17T11:38:35.541Z,15.10
2019-02-17T11:41:16.272Z,15.00
2019-02-17T11:43:56.896Z,14.80
2019-02-17T11:46:37.837Z,14.50
2019-02-17T11:49:18.852Z,14.70
2019-02-17T11:51:59.686Z,15.10
2019-02-17T11:54:40.800Z,15.50
2019-02-17T11:57:21.196Z,15.60
2019-02-17T12:00:01.872Z,15.40
2019-02-17T12:02:42.689Z,15.20
2019-02-17T12:05:23.129Z,15.10
2019-02-17T12:08:04.367Z,15.30
2019-02-17T12:10:44.785Z,15.30
2019-02-17T12:13:25.538Z,15.70
2019-02-17T12:16:06.429Z,15.90
2019-02-17T12:18:47.349Z,16.10
2019-02-17T12:21:29.890Z,16.10
2019-02-17T12:27:24.526Z,16.50
2019-02-17T12:30:05.248Z,16.50
2019-02-17T12:32:45.886Z,16.40
2019-02-17T12:35:26.537Z,16.40
2019-02-17T12:38:07.633Z,16.50
2019-02-17T12:40:48.384Z,16.50
2019-02-17T12:43:29.044Z,16.50
2019-02-17T12:46:10.062Z,16.70
2019-02-17T12:48:51.079Z,16.70
2019-02-17T12:51:32.293Z,16.90
2019-02-17T12:54:12.666Z,17.20
2019-02-17T12:56:53.138Z,17.00
2019-02-17T12:59:33.855Z,17.10
2019-02-17T13:02:14.934Z,17.40
2019-02-17T13:04:55.734Z,17.40
2019-02-17T13:07:36.236Z,17.60
2019-02-17T13:10:17.023Z,17.30
2019-02-17T13:12:57.720Z,17.30
2019-02-17T13:15:38.548Z,17.30
2019-02-17T13:18:19.339Z,17.60
2019-02-17T13:21:00.260Z,18.00
2019-02-17T13:23:41.393Z,18.20
2019-02-17T13:26:21.907Z,17.70
2019-02-17T13:29:02.579Z,17.50
2019-02-17T13:31:43.482Z,17.90
2019-02-17T13:34:24.116Z,18.10
2019-02-17T13:37:04.621Z,17.00
2019-02-17T13:39:44.957Z,16.70
2019-02-17T13:42:25.316Z,16.90
2019-02-17T13:45:05.867Z,17.10
2019-02-17T13:47:47.051Z,16.90
2019-02-17T13:50:27.869Z,17.10
2019-02-17T13:53:11.824Z,16.90
2019-02-17T13:55:51.208Z,17.00
2019-02-17T13:58:32.032Z,18.00
2019-02-17T14:01:13.117Z,17.80
2019-02-17T14:03:53.853Z,17.70
2019-02-17T14:06:35.070Z,17.80
2019-02-17T14:09:15.980Z,17.80
2019-02-17T14:11:56.654Z,17.50
2019-02-17T14:14:38.874Z,17.70
2019-02-17T14:17:19.257Z,17.80
2019-02-17T14:20:00.367Z,17.80
2019-02-17T14:22:40.905Z,17.90
2019-02-17T14:25:21.962Z,18.00
2019-02-17T14:28:02.554Z,17.90
2019-02-17T14:30:43.303Z,17.60
2019-02-17T14:33:23.849Z,17.50
2019-02-17T14:36:04.824Z,17.50
2019-02-17T14:38:45.380Z,17.50
2019-02-17T14:41:26.144Z,17.50
2019-02-17T14:44:06.801Z,17.60
2019-02-17T14:46:47.382Z,17.40
2019-02-17T14:49:27.954Z,17.30
2019-02-17T14:52:08.485Z,17.10
2019-02-17T14:54:49.180Z,17.00
2019-02-17T14:57:29.960Z,16.90
2019-02-17T15:00:10.853Z,16.90
2019-02-17T15:02:51.397Z,16.90
2019-02-17T15:05:31.854Z,16.90
2019-02-17T15:08:00.276Z,17.00
2019-02-17T15:10:48.070Z,17.00
2019-02-17T15:13:35.868Z,16.90
2019-02-17T15:16:23.664Z,16.90
2019-02-17T15:19:11.412Z,16.70
2019-02-17T15:21:59.492Z,16.70
2019-02-17T15:24:47.558Z,16.70
2019-02-17T15:27:35.381Z,16.60
2019-02-17T15:30:23.162Z,16.60
2019-02-17T15:33:11.254Z,16.50
2019-02-17T15:35:59.012Z,16.40
2019-02-17T15:38:46.764Z,16.40
2019-02-17T15:41:34.529Z,16.40
2019-02-17T15:44:22.276Z,16.30
2019-02-17T15:47:10.032Z,16.40
2019-02-17T15:49:57.797Z,16.20
2019-02-17T15:52:45.569Z,16.10
2019-02-17T15:55:25.789Z,16.00
2019-02-17T15:58:06.894Z,15.90
2019-02-17T16:00:48.003Z,15.90
2019-02-17T16:03:28.470Z,15.90
2019-02-17T16:06:08.985Z,15.80
2019-02-17T16:08:52.086Z,15.90
2019-02-17T16:11:32.332Z,15.80
2019-02-17T16:14:12.861Z,15.80
2019-02-17T16:16:53.533Z,15.80
2019-02-17T16:19:34.516Z,15.70
2019-02-17T16:22:15.407Z,15.70
2019-02-17T16:24:56.520Z,15.60
2019-02-17T16:27:37.309Z,15.60
2019-02-17T16:30:17.931Z,15.50
2019-02-17T16:32:58.753Z,15.50
2019-02-17T16:35:39.239Z,15.50
2019-02-17T16:38:19.941Z,15.50
2019-02-17T16:41:00.783Z,15.40
2019-02-17T16:43:41.637Z,15.40
2019-02-17T16:46:22.457Z,15.30
2019-02-17T16:49:03.248Z,15.30
2019-02-17T16:51:44.281Z,15.30
2019-02-17T16:54:25.121Z,15.30
2019-02-17T16:57:05.897Z,15.20
2019-02-17T16:59:46.822Z,15.20
2019-02-17T17:02:27.420Z,15.20
2019-02-17T17:05:08.308Z,15.20
2019-02-17T17:07:49.245Z,15.10
2019-02-17T17:10:29.875Z,15.10
2019-02-17T17:13:10.421Z,15.10
2019-02-17T17:15:51.369Z,15.00
2019-02-17T17:18:32.125Z,15.00
2019-02-17T17:21:12.812Z,15.00
2019-02-17T17:23:53.508Z,15.00
2019-02-17T17:26:34.221Z,15.00
2019-02-17T17:29:14.978Z,15.00
2019-02-17T17:31:55.722Z,14.90
2019-02-17T17:34:58.911Z,14.90
2019-02-17T17:37:37.249Z,14.90
2019-02-17T17:40:17.945Z,14.90
2019-02-17T17:42:58.888Z,14.90
2019-02-17T17:45:39.821Z,14.80
2019-02-17T17:48:20.710Z,14.70
2019-02-17T17:51:01.541Z,14.70
2019-02-17T17:53:42.242Z,14.60
2019-02-17T17:56:23.202Z,14.70
2019-02-17T17:59:04.097Z,14.70
2019-02-17T18:01:44.979Z,14.60
2019-02-17T18:04:25.493Z,14.60
2019-02-17T18:07:06.005Z,14.60
2019-02-17T18:09:46.921Z,14.50
2019-02-17T18:12:27.644Z,14.50
2019-02-17T18:15:08.497Z,14.50
2019-02-17T18:17:54.676Z,14.50
2019-02-17T18:20:31.940Z,14.50
2019-02-17T18:23:12.673Z,14.50
2019-02-17T18:25:53.545Z,14.40
2019-02-17T18:28:34.006Z,14.30
2019-02-17T18:31:14.905Z,14.40
2019-02-17T18:33:55.974Z,14.40
2019-02-17T18:36:36.620Z,14.30
2019-02-17T18:39:17.480Z,14.30
2019-02-17T18:41:58.191Z,14.30
2019-02-17T18:44:38.972Z,14.20
2019-02-17T18:47:19.937Z,14.20
2019-02-17T18:50:00.949Z,14.20
2019-02-17T18:52:42.011Z,14.20
2019-02-17T18:55:22.793Z,14.20
2019-02-17T18:58:03.446Z,14.10
2019-02-17T19:00:44.091Z,14.10
2019-02-17T19:03:25.043Z,14.10
2019-02-17T19:06:06.141Z,14.10
2019-02-17T19:08:47.173Z,14.10
2019-02-17T19:11:28.056Z,14.10
2019-02-17T19:14:08.543Z,14.00
2019-02-17T19:16:49.407Z,13.90
2019-02-17T19:19:29.906Z,13.90
2019-02-17T19:22:10.352Z,13.90
2019-02-17T19:24:51.342Z,13.80
2019-02-17T19:27:32.189Z,13.90
2019-02-17T19:30:12.961Z,13.80
2019-02-17T19:32:53.633Z,13.80
2019-02-17T19:35:41.591Z,13.60
2019-02-17T19:38:16.395Z,13.60
2019-02-17T19:40:57.203Z,13.60
2019-02-17T19:43:38.012Z,13.60
2019-02-17T19:46:18.760Z,13.60
2019-02-17T19:48:59.841Z,13.50
2019-02-17T19:51:40.649Z,13.50
2019-02-17T19:54:21.500Z,13.60
2019-02-17T19:57:02.591Z,13.60
2019-02-17T19:59:43.077Z,13.50
2019-02-17T20:02:25.655Z,13.50
2019-02-17T20:05:08.338Z,13.50
2019-02-17T20:07:49.221Z,13.60
2019-02-17T20:10:29.720Z,13.60
2019-02-17T20:13:10.445Z,13.60
2019-02-17T20:15:51.445Z,13.60
2019-02-17T20:18:32.080Z,13.50
2019-02-17T20:21:12.916Z,13.30
2019-02-17T20:23:53.535Z,13.20
2019-02-17T20:26:34.177Z,13.20
2019-02-17T20:29:14.592Z,13.10
2019-02-17T20:31:55.244Z,13.10
2019-02-17T20:34:36.418Z,13.00
2019-02-17T20:37:17.298Z,13.00
2019-02-17T20:39:57.821Z,13.00
2019-02-17T20:42:38.671Z,13.10
2019-02-17T20:45:19.298Z,13.00
2019-02-17T20:48:00.100Z,12.90
2019-02-17T20:50:40.856Z,12.90
2019-02-17T20:53:21.469Z,12.80
2019-02-17T20:56:01.966Z,12.80
2019-02-17T20:58:30.543Z,12.70
2019-02-17T21:01:18.562Z,12.80
2019-02-17T21:04:06.414Z,12.80
2019-02-17T21:06:54.213Z,12.70
2019-02-17T21:09:41.976Z,12.70
2019-02-17T21:12:29.803Z,12.60
2019-02-17T21:18:26.173Z,12.60
2019-02-17T21:21:14.313Z,12.60
2019-02-17T21:24:02.042Z,12.50
2019-02-17T21:26:49.828Z,12.50
2019-02-17T21:29:37.613Z,12.50
2019-02-17T21:32:25.340Z,12.50
2019-02-17T21:35:13.704Z,12.40
2019-02-17T21:38:01.480Z,12.30
2019-02-17T21:40:49.236Z,12.30
2019-02-17T21:43:37.272Z,12.30
2019-02-17T21:46:25.019Z,12.20
2019-02-17T21:49:12.776Z,12.20
2019-02-17T21:52:00.519Z,12.20
2019-02-17T21:54:48.286Z,12.20
2019-02-17T21:57:36.049Z,12.20
2019-02-17T22:00:23.817Z,12.20
2019-02-17T22:03:11.814Z,12.20
2019-02-17T22:05:59.580Z,12.10
2019-02-17T22:08:47.329Z,12.20
2019-02-17T22:11:35.092Z,12.10
2019-02-17T22:14:22.869Z,11.90
2019-02-17T22:17:10.890Z,11.90
2019-02-17T22:19:58.634Z,11.90
2019-02-17T22:22:46.448Z,11.80
2019-02-17T22:25:34.209Z,11.80
2019-02-17T22:28:22.004Z,11.90
2019-02-17T22:31:09.749Z,11.90
2019-02-17T22:33:57.521Z,11.90
2019-02-17T22:36:45.297Z,11.70
2019-02-17T22:39:33.053Z,11.80
2019-02-17T22:42:20.820Z,11.70
2019-02-17T22:45:29.291Z,11.70
2019-02-17T22:48:17.068Z,11.70
2019-02-17T22:51:04.840Z,11.70
2019-02-17T22:53:52.592Z,11.60
2019-02-17T22:56:40.361Z,11.50
2019-02-17T22:59:21.195Z,11.50
2019-02-17T23:02:02.173Z,11.50
2019-02-17T23:04:42.844Z,11.50
2019-02-17T23:07:23.549Z,11.50
2019-02-17T23:10:04.817Z,11.50
2019-02-17T23:12:45.439Z,11.50
2019-02-17T23:15:26.184Z,11.40
2019-02-17T23:18:06.821Z,11.30
2019-02-17T23:20:47.750Z,11.30
2019-02-17T23:23:28.553Z,11.30
2019-02-17T23:26:08.756Z,11.40
2019-02-17T23:28:49.743Z,11.20
2019-02-17T23:31:30.698Z,11.30
2019-02-17T23:34:11.321Z,11.20
2019-02-17T23:36:52.012Z,11.20
2019-02-17T23:39:32.966Z,11.20
2019-02-17T23:42:13.673Z,11.20
2019-02-17T23:44:54.801Z,11.20
2019-02-17T23:47:35.797Z,11.10
2019-02-17T23:50:16.402Z,11.00
2019-02-17T23:52:56.990Z,11.10
2019-02-17T23:55:37.809Z,11.00
2019-02-17T23:58:18.407Z,10.90
